sensor_id;sensor_type;location;lat;lon;timestamp;pressure;altitude;pressure_sealevel;temperature;humidity
61710;BME280;47633;51.494;5.386;2023-08-17T00:01:19;101904.88;;;24.16;53.04
61710;BME280;47633;51.494;5.386;2023-08-17T00:03:45;101903.22;;;24.15;53.25
61710;BME280;47633;51.494;5.386;2023-08-17T00:06:10;101906.56;;;24.17;53.19
61710;BME280;47633;51.494;5.386;2023-08-17T00:08:35;101898.72;;;24.16;52.63
61710;BME280;47633;51.494;5.386;2023-08-17T00:11:01;101892.56;;;24.15;53.04
61710;BME280;47633;51.494;5.386;2023-08-17T00:13:26;101903.06;;;24.17;52.64
61710;BME280;47633;51.494;5.386;2023-08-17T00:15:52;101891.69;;;24.15;52.58
61710;BME280;47633;51.494;5.386;2023-08-17T00:18:17;101897.88;;;24.15;53.04
61710;BME280;47633;51.494;5.386;2023-08-17T00:20:42;101897.03;;;24.15;52.75
61710;BME280;47633;51.494;5.386;2023-08-17T00:23:09;101889.16;;;24.13;52.91
61710;BME280;47633;51.494;5.386;2023-08-17T00:25:34;101901.50;;;24.14;52.86
61710;BME280;47633;51.494;5.386;2023-08-17T00:27:59;101895.34;;;24.14;52.53
61710;BME280;47633;51.494;5.386;2023-08-17T00:30:25;101888.19;;;24.14;52.89
61710;BME280;47633;51.494;5.386;2023-08-17T00:32:50;101893.66;;;24.13;53.07
61710;BME280;47633;51.494;5.386;2023-08-17T00:35:15;101888.34;;;24.13;53.00
61710;BME280;47633;51.494;5.386;2023-08-17T00:37:41;101884.84;;;24.12;53.07
61710;BME280;47633;51.494;5.386;2023-08-17T00:40:06;101889.16;;;24.13;52.45
61710;BME280;47633;51.494;5.386;2023-08-17T00:42:32;101887.50;;;24.12;52.57
61710;BME280;47633;51.494;5.386;2023-08-17T00:44:57;101897.31;;;24.12;52.79
61710;BME280;47633;51.494;5.386;2023-08-17T00:47:23;101900.00;;;24.12;52.98
61710;BME280;47633;51.494;5.386;2023-08-17T00:49:49;101900.81;;;24.12;52.71
61710;BME280;47633;51.494;5.386;2023-08-17T00:52:15;101900.97;;;24.11;52.91
61710;BME280;47633;51.494;5.386;2023-08-17T00:54:40;101899.13;;;24.11;52.43
61710;BME280;47633;51.494;5.386;2023-08-17T00:57:05;101901.78;;;24.11;52.73
61710;BME280;47633;51.494;5.386;2023-08-17T00:59:31;101897.47;;;24.10;52.46
61710;BME280;47633;51.494;5.386;2023-08-17T01:01:57;101894.06;;;24.08;52.74
61710;BME280;47633;51.494;5.386;2023-08-17T01:04:22;101901.09;;;24.09;52.40
61710;BME280;47633;51.494;5.386;2023-08-17T01:06:48;101899.41;;;24.08;52.49
61710;BME280;47633;51.494;5.386;2023-08-17T01:09:13;101905.59;;;24.08;52.73
61710;BME280;47633;51.494;5.386;2023-08-17T01:11:47;101904.72;;;24.08;52.91
61710;BME280;47633;51.494;5.386;2023-08-17T01:14:39;101901.25;;;24.07;52.83
61710;BME280;47633;51.494;5.386;2023-08-17T01:17:24;101894.22;;;24.06;52.31
61710;BME280;47633;51.494;5.386;2023-08-17T01:19:52;101895.78;;;24.09;52.76
61710;BME280;47633;51.494;5.386;2023-08-17T01:22:21;101897.75;;;24.07;52.86
61710;BME280;47633;51.494;5.386;2023-08-17T01:24:47;101894.06;;;24.08;52.37
61710;BME280;47633;51.494;5.386;2023-08-17T01:27:12;101895.09;;;24.07;52.34
61710;BME280;47633;51.494;5.386;2023-08-17T01:29:38;101896.88;;;24.06;52.54
61710;BME280;47633;51.494;5.386;2023-08-17T01:34:33;101890.84;;;24.04;52.31
61710;BME280;47633;51.494;5.386;2023-08-17T01:37:04;101888.19;;;24.04;52.37
61710;BME280;47633;51.494;5.386;2023-08-17T01:39:37;101884.69;;;24.04;52.60
61710;BME280;47633;51.494;5.386;2023-08-17T01:42:04;101883.00;;;24.03;52.73
61710;BME280;47633;51.494;5.386;2023-08-17T01:44:30;101885.66;;;24.03;52.25
61710;BME280;47633;51.494;5.386;2023-08-17T01:46:56;101878.38;;;24.05;52.69
61710;BME280;47633;51.494;5.386;2023-08-17T01:49:21;101877.69;;;24.03;52.63
61710;BME280;47633;51.494;5.386;2023-08-17T01:51:46;101866.19;;;24.02;52.47
61710;BME280;47633;51.494;5.386;2023-08-17T01:54:12;101868.88;;;24.02;52.26
61710;BME280;47633;51.494;5.386;2023-08-17T01:56:37;101878.50;;;24.03;52.61
61710;BME280;47633;51.494;5.386;2023-08-17T01:59:02;101875.03;;;24.03;52.79
61710;BME280;47633;51.494;5.386;2023-08-17T02:01:28;101878.66;;;24.02;52.73
61710;BME280;47633;51.494;5.386;2023-08-17T02:03:53;101879.50;;;24.02;52.58
61710;BME280;47633;51.494;5.386;2023-08-17T02:06:19;101870.66;;;24.02;52.35
61710;BME280;47633;51.494;5.386;2023-08-17T02:08:45;101881.31;;;24.02;52.45
61710;BME280;47633;51.494;5.386;2023-08-17T02:11:11;101881.44;;;24.00;52.34
61710;BME280;47633;51.494;5.386;2023-08-17T02:13:36;101884.97;;;24.01;52.46
61710;BME280;47633;51.494;5.386;2023-08-17T02:16:05;101889.31;;;24.02;52.94
61710;BME280;47633;51.494;5.386;2023-08-17T02:18:31;101888.47;;;24.01;52.62
61710;BME280;47633;51.494;5.386;2023-08-17T02:20:58;101885.94;;;24.00;52.57
61710;BME280;47633;51.494;5.386;2023-08-17T02:23:23;101884.13;;;24.00;52.36
61710;BME280;47633;51.494;5.386;2023-08-17T02:25:49;101885.81;;;24.01;52.69
61710;BME280;47633;51.494;5.386;2023-08-17T02:28:14;101885.94;;;24.00;52.62
61710;BME280;47633;51.494;5.386;2023-08-17T02:30:40;101885.13;;;23.99;52.59
61710;BME280;47633;51.494;5.386;2023-08-17T02:33:05;101896.59;;;24.00;52.20
61710;BME280;47633;51.494;5.386;2023-08-17T02:35:30;101880.75;;;23.98;52.80
61710;BME280;47633;51.494;5.386;2023-08-17T02:37:56;101889.44;;;24.00;52.71
61710;BME280;47633;51.494;5.386;2023-08-17T02:40:21;101884.25;;;23.99;52.65
61710;BME280;47633;51.494;5.386;2023-08-17T02:42:46;101878.09;;;23.98;52.53
61710;BME280;47633;51.494;5.386;2023-08-17T02:45:12;101881.59;;;23.99;52.54
61710;BME280;47633;51.494;5.386;2023-08-17T02:47:37;101873.75;;;23.97;52.29
61710;BME280;47633;51.494;5.386;2023-08-17T02:50:03;101873.75;;;23.97;52.43
61710;BME280;47633;51.494;5.386;2023-08-17T02:52:28;101873.75;;;23.97;52.93
61710;BME280;47633;51.494;5.386;2023-08-17T02:54:54;101874.59;;;23.98;52.81
61710;BME280;47633;51.494;5.386;2023-08-17T02:57:20;101872.09;;;23.96;52.37
61710;BME280;47633;51.494;5.386;2023-08-17T02:59:45;101866.75;;;23.96;52.36
61710;BME280;47633;51.494;5.386;2023-08-17T03:02:11;101865.91;;;23.96;52.68
61710;BME280;47633;51.494;5.386;2023-08-17T03:04:36;101865.06;;;23.95;52.40
61710;BME280;47633;51.494;5.386;2023-08-17T03:07:01;101871.22;;;23.96;52.03
61710;BME280;47633;51.494;5.386;2023-08-17T03:09:27;101870.38;;;23.95;52.60
61710;BME280;47633;51.494;5.386;2023-08-17T03:11:52;101863.41;;;23.94;52.44
61710;BME280;47633;51.494;5.386;2023-08-17T03:14:17;101859.88;;;23.94;52.40
61710;BME280;47633;51.494;5.386;2023-08-17T03:16:43;101859.88;;;23.94;52.12
61710;BME280;47633;51.494;5.386;2023-08-17T03:19:08;101868.72;;;23.94;52.52
61710;BME280;47633;51.494;5.386;2023-08-17T03:21:36;101862.69;;;23.92;52.34
61710;BME280;47633;51.494;5.386;2023-08-17T03:24:01;101864.38;;;23.93;52.00
61710;BME280;47633;51.494;5.386;2023-08-17T03:26:26;101862.53;;;23.94;52.32
61710;BME280;47633;51.494;5.386;2023-08-17T03:28:52;101860.88;;;23.93;52.35
61710;BME280;47633;51.494;5.386;2023-08-17T03:31:20;101866.19;;;23.93;51.93
61710;BME280;47633;51.494;5.386;2023-08-17T03:33:46;101861.00;;;23.91;51.92
61710;BME280;47633;51.494;5.386;2023-08-17T03:36:11;101860.00;;;23.92;52.06
61710;BME280;47633;51.494;5.386;2023-08-17T03:38:36;101865.34;;;23.92;52.33
61710;BME280;47633;51.494;5.386;2023-08-17T03:41:04;101860.16;;;23.90;52.22
61710;BME280;47633;51.494;5.386;2023-08-17T03:43:29;101859.19;;;23.92;52.22
61710;BME280;47633;51.494;5.386;2023-08-17T03:45:55;101858.34;;;23.91;52.23
61710;BME280;47633;51.494;5.386;2023-08-17T03:48:20;101854.81;;;23.90;51.76
61710;BME280;47633;51.494;5.386;2023-08-17T03:50:51;101854.13;;;23.88;51.94
61710;BME280;47633;51.494;5.386;2023-08-17T03:53:16;101861.16;;;23.89;52.11
61710;BME280;47633;51.494;5.386;2023-08-17T03:55:46;101862.94;;;23.89;52.20
61710;BME280;47633;51.494;5.386;2023-08-17T03:58:11;101867.44;;;23.88;52.23
61710;BME280;47633;51.494;5.386;2023-08-17T04:00:36;101869.97;;;23.90;51.88
61710;BME280;47633;51.494;5.386;2023-08-17T04:03:02;101868.28;;;23.89;51.85
61710;BME280;47633;51.494;5.386;2023-08-17T04:05:27;101864.78;;;23.88;51.82
61710;BME280;47633;51.494;5.386;2023-08-17T04:07:52;101878.09;;;23.88;51.62
61710;BME280;47633;51.494;5.386;2023-08-17T04:10:18;101877.13;;;23.89;51.69
61710;BME280;47633;51.494;5.386;2023-08-17T04:12:43;101884.25;;;23.89;51.84
61710;BME280;47633;51.494;5.386;2023-08-17T04:15:09;101884.25;;;23.89;51.76
61710;BME280;47633;51.494;5.386;2023-08-17T04:17:34;101880.75;;;23.88;51.92
61710;BME280;47633;51.494;5.386;2023-08-17T04:19:59;101883.41;;;23.88;51.75
61710;BME280;47633;51.494;5.386;2023-08-17T04:22:25;101886.06;;;23.88;51.96
61710;BME280;47633;51.494;5.386;2023-08-17T04:24:50;101883.41;;;23.88;52.16
61710;BME280;47633;51.494;5.386;2023-08-17T04:27:16;101887.19;;;23.86;52.16
61710;BME280;47633;51.494;5.386;2023-08-17T04:29:42;101889.72;;;23.87;52.02
61710;BME280;47633;51.494;5.386;2023-08-17T04:32:07;101888.88;;;23.87;52.12
61710;BME280;47633;51.494;5.386;2023-08-17T04:34:32;101896.88;;;23.87;51.82
61710;BME280;47633;51.494;5.386;2023-08-17T04:36:58;101889.84;;;23.86;52.19
61710;BME280;47633;51.494;5.386;2023-08-17T04:39:23;101890.84;;;23.85;51.94
61710;BME280;47633;51.494;5.386;2023-08-17T04:41:48;101887.31;;;23.84;51.77
61710;BME280;47633;51.494;5.386;2023-08-17T04:44:13;101890.84;;;23.85;52.29
61710;BME280;47633;51.494;5.386;2023-08-17T04:46:39;101885.53;;;23.85;51.81
61710;BME280;47633;51.494;5.386;2023-08-17T04:49:04;101893.50;;;23.85;52.12
61710;BME280;47633;51.494;5.386;2023-08-17T04:51:30;101888.19;;;23.85;51.80
61710;BME280;47633;51.494;5.386;2023-08-17T04:53:55;101892.63;;;23.84;51.86
61710;BME280;47633;51.494;5.386;2023-08-17T04:56:20;101888.19;;;23.85;51.80
61710;BME280;47633;51.494;5.386;2023-08-17T04:58:46;101887.31;;;23.84;52.11
61710;BME280;47633;51.494;5.386;2023-08-17T05:01:11;101880.34;;;23.83;51.97
61710;BME280;47633;51.494;5.386;2023-08-17T05:03:36;101889.97;;;23.84;51.60
61710;BME280;47633;51.494;5.386;2023-08-17T05:06:02;101889.97;;;23.84;52.04
61710;BME280;47633;51.494;5.386;2023-08-17T05:08:28;101886.50;;;23.84;52.17
61710;BME280;47633;51.494;5.386;2023-08-17T05:10:53;101886.59;;;23.82;51.68
61710;BME280;47633;51.494;5.386;2023-08-17T05:13:19;101883.00;;;23.83;51.87
61710;BME280;47633;51.494;5.386;2023-08-17T05:15:44;101891.81;;;23.84;51.74
61710;BME280;47633;51.494;5.386;2023-08-17T05:18:10;101883.09;;;23.82;51.83
61710;BME280;47633;51.494;5.386;2023-08-17T05:20:35;101885.75;;;23.82;51.61
61710;BME280;47633;51.494;5.386;2023-08-17T05:23:01;101883.09;;;23.82;51.99
61710;BME280;47633;51.494;5.386;2023-08-17T05:25:26;101881.41;;;23.81;51.95
61710;BME280;47633;51.494;5.386;2023-08-17T05:27:52;101880.44;;;23.82;51.92
61710;BME280;47633;51.494;5.386;2023-08-17T05:30:17;101878.75;;;23.81;51.80
61710;BME280;47633;51.494;5.386;2023-08-17T05:32:43;101881.41;;;23.81;51.74
61710;BME280;47633;51.494;5.386;2023-08-17T05:35:08;101881.41;;;23.81;51.70
61710;BME280;47633;51.494;5.386;2023-08-17T05:37:33;101890.22;;;23.81;52.17
61710;BME280;47633;51.494;5.386;2023-08-17T05:39:58;101891.09;;;23.82;52.06
61710;BME280;47633;51.494;5.386;2023-08-17T05:42:24;101884.06;;;23.81;52.21
61710;BME280;47633;51.494;5.386;2023-08-17T05:44:49;101891.22;;;23.80;51.92
61710;BME280;47633;51.494;5.386;2023-08-17T05:47:14;101894.72;;;23.81;51.81
61710;BME280;47633;51.494;5.386;2023-08-17T05:49:42;101891.22;;;23.80;51.77
61710;BME280;47633;51.494;5.386;2023-08-17T05:52:08;101888.69;;;23.79;51.74
61710;BME280;47633;51.494;5.386;2023-08-17T05:54:33;101888.56;;;23.80;52.08
61710;BME280;47633;51.494;5.386;2023-08-17T05:56:58;101888.69;;;23.79;52.13
61710;BME280;47633;51.494;5.386;2023-08-17T05:59:24;101895.69;;;23.80;51.77
61710;BME280;47633;51.494;5.386;2023-08-17T06:01:49;101892.19;;;23.79;52.28
61710;BME280;47633;51.494;5.386;2023-08-17T06:04:14;101904.53;;;23.80;52.13
61710;BME280;47633;51.494;5.386;2023-08-17T06:06:40;101900.31;;;23.78;52.07
61710;BME280;47633;51.494;5.386;2023-08-17T06:09:05;101898.47;;;23.78;52.01
61710;BME280;47633;51.494;5.386;2023-08-17T06:11:32;101896.69;;;23.79;51.96
61710;BME280;47633;51.494;5.386;2023-08-17T06:13:58;101911.50;;;23.81;51.41
61710;BME280;47633;51.494;5.386;2023-08-17T06:16:23;101911.50;;;23.81;51.50
61710;BME280;47633;51.494;5.386;2023-08-17T06:18:49;101915.19;;;23.80;52.13
61710;BME280;47633;51.494;5.386;2023-08-17T06:21:15;101909.72;;;23.82;52.15
61710;BME280;47633;51.494;5.386;2023-08-17T06:23:40;101907.06;;;23.82;52.37
61710;BME280;47633;51.494;5.386;2023-08-17T06:26:05;101905.38;;;23.81;52.41
61710;BME280;47633;51.494;5.386;2023-08-17T06:28:30;101907.88;;;23.82;52.51
61710;BME280;47633;51.494;5.386;2023-08-17T06:30:56;101902.56;;;23.82;52.45
61710;BME280;47633;51.494;5.386;2023-08-17T06:33:22;101900.72;;;23.83;52.14
61710;BME280;47633;51.494;5.386;2023-08-17T06:35:48;101909.63;;;23.83;52.41
61710;BME280;47633;51.494;5.386;2023-08-17T06:38:13;101908.03;;;23.81;52.87
61710;BME280;47633;51.494;5.386;2023-08-17T06:40:39;101916.00;;;23.81;52.64
61710;BME280;47633;51.494;5.386;2023-08-17T06:43:04;101918.53;;;23.82;53.09
61710;BME280;47633;51.494;5.386;2023-08-17T06:45:31;101917.69;;;23.82;52.98
61710;BME280;47633;51.494;5.386;2023-08-17T06:47:56;101911.38;;;23.83;53.15
61710;BME280;47633;51.494;5.386;2023-08-17T06:50:22;101912.28;;;23.83;52.97
61710;BME280;47633;51.494;5.386;2023-08-17T06:52:47;101915.63;;;23.85;52.81
61710;BME280;47633;51.494;5.386;2023-08-17T06:55:12;101916.59;;;23.84;53.23
61710;BME280;47633;51.494;5.386;2023-08-17T06:57:38;101908.63;;;23.84;52.69
61710;BME280;47633;51.494;5.386;2023-08-17T07:00:03;101906.81;;;23.85;53.17
61710;BME280;47633;51.494;5.386;2023-08-17T07:02:32;101907.66;;;23.85;53.08
61710;BME280;47633;51.494;5.386;2023-08-17T07:04:58;101906.81;;;23.85;52.95
61710;BME280;47633;51.494;5.386;2023-08-17T07:07:23;101911.28;;;23.84;53.28
61710;BME280;47633;51.494;5.386;2023-08-17T07:09:49;101908.63;;;23.84;53.29
61710;BME280;47633;51.494;5.386;2023-08-17T07:12:14;101910.31;;;23.85;53.37
61710;BME280;47633;51.494;5.386;2023-08-17T07:14:39;101918.16;;;23.87;52.88
61710;BME280;47633;51.494;5.386;2023-08-17T07:17:05;101909.34;;;23.86;53.50
61710;BME280;47633;51.494;5.386;2023-08-17T07:19:30;101915.50;;;23.87;53.23
61710;BME280;47633;51.494;5.386;2023-08-17T07:21:55;101914.53;;;23.88;53.23
61710;BME280;47633;51.494;5.386;2023-08-17T07:24:21;101917.19;;;23.88;52.81
61710;BME280;47633;51.494;5.386;2023-08-17T07:26:46;101917.06;;;23.89;53.04
61710;BME280;47633;51.494;5.386;2023-08-17T07:29:11;101912.84;;;23.87;53.04
61710;BME280;47633;51.494;5.386;2023-08-17T07:31:38;101910.16;;;23.87;53.47
61710;BME280;47633;51.494;5.386;2023-08-17T07:34:06;101910.59;;;23.92;53.24
61710;BME280;47633;51.494;5.386;2023-08-17T07:36:32;101913.81;;;23.96;53.09
61710;BME280;47633;51.494;5.386;2023-08-17T07:38:58;101923.50;;;23.97;52.80
61710;BME280;47633;51.494;5.386;2023-08-17T07:41:24;101914.53;;;23.98;52.79
61710;BME280;47633;51.494;5.386;2023-08-17T07:43:49;101919.00;;;23.97;52.65
61710;BME280;47633;51.494;5.386;2023-08-17T07:46:15;101923.50;;;23.97;53.50
61710;BME280;47633;51.494;5.386;2023-08-17T07:48:40;101919.59;;;24.01;52.94
61710;BME280;47633;51.494;5.386;2023-08-17T07:51:06;101919.31;;;24.04;52.98
61710;BME280;47633;51.494;5.386;2023-08-17T07:53:31;101922.53;;;24.07;52.42
61710;BME280;47633;51.494;5.386;2023-08-17T07:55:56;101925.19;;;24.07;52.50
61710;BME280;47633;51.494;5.386;2023-08-17T07:58:22;101921.44;;;24.10;52.37
61710;BME280;47633;51.494;5.386;2023-08-17T08:00:47;101929.41;;;24.10;52.61
61710;BME280;47633;51.494;5.386;2023-08-17T08:03:14;101922.53;;;24.07;52.42
61710;BME280;47633;51.494;5.386;2023-08-17T08:05:39;101924.38;;;24.07;52.32
61710;BME280;47633;51.494;5.386;2023-08-17T08:08:05;101927.72;;;24.09;52.54
61710;BME280;47633;51.494;5.386;2023-08-17T08:10:30;101924.22;;;24.08;52.81
61710;BME280;47633;51.494;5.386;2023-08-17T08:12:56;101922.53;;;24.07;52.24
61710;BME280;47633;51.494;5.386;2023-08-17T08:15:21;101919.75;;;24.09;52.70
61710;BME280;47633;51.494;5.386;2023-08-17T08:17:46;101923.97;;;24.12;52.25
61710;BME280;47633;51.494;5.386;2023-08-17T08:20:12;101915.09;;;24.11;52.19
61710;BME280;47633;51.494;5.386;2023-08-17T08:22:37;101910.47;;;24.13;52.64
61710;BME280;47633;51.494;5.386;2023-08-17T08:25:03;101918.31;;;24.15;52.07
61710;BME280;47633;51.494;5.386;2023-08-17T08:27:28;101924.50;;;24.15;52.57
61710;BME280;47633;51.494;5.386;2023-08-17T08:29:53;101921.84;;;24.15;52.51
61710;BME280;47633;51.494;5.386;2023-08-17T08:32:36;101918.31;;;24.15;52.65
61710;BME280;47633;51.494;5.386;2023-08-17T08:35:02;101919.06;;;24.17;52.61
61710;BME280;47633;51.494;5.386;2023-08-17T08:37:27;101925.22;;;24.17;52.19
61710;BME280;47633;51.494;5.386;2023-08-17T08:39:54;101925.34;;;24.16;52.72
61710;BME280;47633;51.494;5.386;2023-08-17T08:42:21;101927.03;;;24.17;52.36
61710;BME280;47633;51.494;5.386;2023-08-17T08:44:47;101928.69;;;24.18;52.53
61710;BME280;47633;51.494;5.386;2023-08-17T08:47:13;101925.34;;;24.16;52.49
61710;BME280;47633;51.494;5.386;2023-08-17T08:49:59;101921.00;;;24.15;52.36
61710;BME280;47633;51.494;5.386;2023-08-17T08:52:40;101911.91;;;24.17;52.58
61710;BME280;47633;51.494;5.386;2023-08-17T08:55:28;101917.78;;;24.21;52.35
61710;BME280;47633;51.494;5.386;2023-08-17T08:57:55;101914.00;;;24.23;52.07
61710;BME280;47633;51.494;5.386;2023-08-17T09:00:22;101919.31;;;24.23;52.13
61710;BME280;47633;51.494;5.386;2023-08-17T09:02:48;101909.66;;;24.22;52.60
61710;BME280;47633;51.494;5.386;2023-08-17T09:05:14;101906.84;;;24.24;52.59
61710;BME280;47633;51.494;5.386;2023-08-17T09:07:42;101913.88;;;24.25;52.37
61710;BME280;47633;51.494;5.386;2023-08-17T09:10:14;101910.09;;;24.27;52.19
61710;BME280;47633;51.494;5.386;2023-08-17T09:12:41;101908.94;;;24.30;52.23
61710;BME280;47633;51.494;5.386;2023-08-17T09:15:07;101905.47;;;24.30;52.28
61710;BME280;47633;51.494;5.386;2023-08-17T09:17:32;101903.63;;;24.30;52.65
61710;BME280;47633;51.494;5.386;2023-08-17T09:20:01;101904.75;;;24.27;52.79
61710;BME280;47633;51.494;5.386;2023-08-17T09:22:41;101902.38;;;24.24;52.60
61710;BME280;47633;51.494;5.386;2023-08-17T09:25:09;101915.41;;;24.27;52.62
61710;BME280;47633;51.494;5.386;2023-08-17T09:27:38;101916.38;;;24.26;52.81
61710;BME280;47633;51.494;5.386;2023-08-17T09:30:05;101915.41;;;24.27;52.36
61710;BME280;47633;51.494;5.386;2023-08-17T09:32:32;101903.06;;;24.26;52.48
61710;BME280;47633;51.494;5.386;2023-08-17T09:35:00;101909.50;;;24.24;52.46
61710;BME280;47633;51.494;5.386;2023-08-17T09:37:27;101906.97;;;24.22;52.45
61710;BME280;47633;51.494;5.386;2023-08-17T09:39:53;101907.69;;;24.24;52.40
61710;BME280;47633;51.494;5.386;2023-08-17T09:42:18;101905.88;;;24.25;52.72
61710;BME280;47633;51.494;5.386;2023-08-17T09:44:44;101907.69;;;24.24;52.60
61710;BME280;47633;51.494;5.386;2023-08-17T09:47:10;101907.97;;;24.21;52.53
61710;BME280;47633;51.494;5.386;2023-08-17T09:49:35;101900.97;;;24.20;52.50
61710;BME280;47633;51.494;5.386;2023-08-17T09:52:01;101908.25;;;24.18;52.30
61710;BME280;47633;51.494;5.386;2023-08-17T09:54:30;101903.91;;;24.17;52.94
61710;BME280;47633;51.494;5.386;2023-08-17T09:56:57;101897.88;;;24.15;52.65
61710;BME280;47633;51.494;5.386;2023-08-17T09:59:23;101901.50;;;24.14;52.80
61710;BME280;47633;51.494;5.386;2023-08-17T10:01:50;101898.03;;;24.14;52.90
61710;BME280;47633;51.494;5.386;2023-08-17T10:04:23;101895.34;;;24.14;52.79
61710;BME280;47633;51.494;5.386;2023-08-17T10:06:57;101898.56;;;24.17;51.51
61710;BME280;47633;51.494;5.386;2023-08-17T10:09:25;101887.91;;;24.17;50.85
61710;BME280;47633;51.494;5.386;2023-08-17T10:12:16;101884.00;;;24.12;50.44
61710;BME280;47633;51.494;5.386;2023-08-17T10:14:49;101885.69;;;24.13;50.29
61710;BME280;47633;51.494;5.386;2023-08-17T10:17:22;101875.16;;;24.11;50.30
61710;BME280;47633;51.494;5.386;2023-08-17T10:19:58;101884.28;;;24.08;50.65
61710;BME280;47633;51.494;5.386;2023-08-17T10:22:34;101883.56;;;24.06;50.60
61710;BME280;47633;51.494;5.386;2023-08-17T10:25:01;101873.06;;;24.05;50.77
61710;BME280;47633;51.494;5.386;2023-08-17T10:27:27;101879.38;;;24.04;51.23
61710;BME280;47633;51.494;5.386;2023-08-17T10:29:53;101877.69;;;24.03;51.29
61710;BME280;47633;51.494;5.386;2023-08-17T10:32:21;101875.03;;;24.03;51.13
61710;BME280;47633;51.494;5.386;2023-08-17T10:34:48;101877.69;;;24.03;51.17
61710;BME280;47633;51.494;5.386;2023-08-17T10:37:14;101874.19;;;24.02;51.50
61710;BME280;47633;51.494;5.386;2023-08-17T10:39:45;101874.06;;;23.94;51.85
61710;BME280;47633;51.494;5.386;2023-08-17T10:42:11;101879.06;;;23.97;52.23
61710;BME280;47633;51.494;5.386;2023-08-17T10:44:48;101879.22;;;23.96;52.39
61710;BME280;47633;51.494;5.386;2023-08-17T10:47:24;101875.84;;;23.94;52.58
61710;BME280;47633;51.494;5.386;2023-08-17T10:49:51;101871.53;;;23.93;52.44
61710;BME280;47633;51.494;5.386;2023-08-17T10:52:31;101870.53;;;23.94;52.32
61710;BME280;47633;51.494;5.386;2023-08-17T10:55:02;101874.59;;;23.98;52.56
61710;BME280;47633;51.494;5.386;2023-08-17T10:57:32;101876.00;;;24.02;52.57
61710;BME280;47633;51.494;5.386;2023-08-17T11:02:39;101866.47;;;24.09;52.66
61710;BME280;47633;51.494;5.386;2023-08-17T11:05:05;101868.03;;;24.12;52.23
61710;BME280;47633;51.494;5.386;2023-08-17T11:07:41;101869.28;;;24.07;52.67
61710;BME280;47633;51.494;5.386;2023-08-17T11:10:11;101872.91;;;24.06;53.08
61710;BME280;47633;51.494;5.386;2023-08-17T11:12:36;101875.16;;;24.11;52.92
61710;BME280;47633;51.494;5.386;2023-08-17T11:15:02;101877.13;;;24.09;53.14
61710;BME280;47633;51.494;5.386;2023-08-17T11:17:28;101876.84;;;24.12;52.61
61710;BME280;47633;51.494;5.386;2023-08-17T11:19:54;101881.34;;;24.12;53.01
61710;BME280;47633;51.494;5.386;2023-08-17T11:22:24;101880.50;;;24.11;52.88
61710;BME280;47633;51.494;5.386;2023-08-17T11:24:51;101879.78;;;24.09;53.24
61710;BME280;47633;51.494;5.386;2023-08-17T11:27:16;101881.34;;;24.12;53.08
61710;BME280;47633;51.494;5.386;2023-08-17T11:29:41;101876.84;;;24.12;52.76
61710;BME280;47633;51.494;5.386;2023-08-17T11:32:08;101884.72;;;24.14;52.79
61710;BME280;47633;51.494;5.386;2023-08-17T11:34:35;101883.00;;;24.13;52.78
61710;BME280;47633;51.494;5.386;2023-08-17T11:37:01;101882.88;;;24.14;52.90
61710;BME280;47633;51.494;5.386;2023-08-17T11:39:26;101875.56;;;24.16;52.97
61710;BME280;47633;51.494;5.386;2023-08-17T11:41:51;101872.91;;;24.16;53.27
61710;BME280;47633;51.494;5.386;2023-08-17T11:44:18;101880.91;;;24.16;52.98
61710;BME280;47633;51.494;5.386;2023-08-17T11:46:46;101879.09;;;24.17;53.09
61710;BME280;47633;51.494;5.386;2023-08-17T11:49:12;101881.75;;;24.17;53.01
61710;BME280;47633;51.494;5.386;2023-08-17T11:51:38;101883.28;;;24.19;52.92
61710;BME280;47633;51.494;5.386;2023-08-17T11:54:04;101886.94;;;24.18;53.23
61710;BME280;47633;51.494;5.386;2023-08-17T11:56:33;101883.28;;;24.19;53.25
61710;BME280;47633;51.494;5.386;2023-08-17T11:58:58;101880.75;;;24.18;52.88
61710;BME280;47633;51.494;5.386;2023-08-17T12:01:23;101879.66;;;24.20;53.04
61710;BME280;47633;51.494;5.386;2023-08-17T12:03:49;101884.69;;;24.23;53.18
61710;BME280;47633;51.494;5.386;2023-08-17T12:06:16;101878.69;;;24.21;53.24
61710;BME280;47633;51.494;5.386;2023-08-17T12:08:47;101873.50;;;24.20;52.98
61710;BME280;47633;51.494;5.386;2023-08-17T12:11:13;101880.50;;;24.21;52.99
61710;BME280;47633;51.494;5.386;2023-08-17T12:13:38;101885.41;;;24.25;53.27
61710;BME280;47633;51.494;5.386;2023-08-17T12:16:03;101865.09;;;24.24;53.19
61710;BME280;47633;51.494;5.386;2023-08-17T12:18:32;101883.72;;;24.24;53.10
61710;BME280;47633;51.494;5.386;2023-08-17T12:20:58;101870.41;;;24.24;53.05
61710;BME280;47633;51.494;5.386;2023-08-17T12:23:23;101873.09;;;24.24;53.31
61710;BME280;47633;51.494;5.386;2023-08-17T12:25:55;101882.19;;;24.22;53.45
61710;BME280;47633;51.494;5.386;2023-08-17T12:28:28;101887.38;;;24.23;53.10
61710;BME280;47633;51.494;5.386;2023-08-17T12:31:00;101883.00;;;24.22;53.56
61710;BME280;47633;51.494;5.386;2023-08-17T12:33:26;101878.41;;;24.24;53.32
61710;BME280;47633;51.494;5.386;2023-08-17T12:35:51;101875.75;;;24.24;53.30
61710;BME280;47633;51.494;5.386;2023-08-17T12:38:17;101873.78;;;24.26;53.15
61710;BME280;47633;51.494;5.386;2023-08-17T12:40:42;101877.41;;;24.25;53.27
61710;BME280;47633;51.494;5.386;2023-08-17T12:43:08;101872.81;;;24.27;53.52
61710;BME280;47633;51.494;5.386;2023-08-17T12:45:33;101877.00;;;24.30;53.46
61710;BME280;47633;51.494;5.386;2023-08-17T12:47:59;101879.50;;;24.32;53.12
61710;BME280;47633;51.494;5.386;2023-08-17T12:50:25;101875.16;;;24.31;53.32
61710;BME280;47633;51.494;5.386;2023-08-17T12:52:50;101871.53;;;24.32;53.72